Danvers, Illinois
Current Conditions -  °F | °C
As of 8:18 AM on Saturday 25 Oct 2014 (Local Time) from KBMI Reporting Station
Moderate Fog Moderate Fog  
Wind Chill: 55°   Ceiling: 100
Heat Index: 55°   Visibility: 0.12mi
Dew Point: 55°   Wind: 6mph
Humidity: 100%   Direction: 260°W
Pressure: 30"   Gusts: NA
Location:  40.53°N, 89.18°W
Report Text: KBMI 251318Z 26005KT 1/8SM R29/0800FT FG OVC001 13/13 A3000 RMK AO2 RAB03E07 P0000
Loading
Personal Weather Stations






























Interactive Weather Map
Tropical Storm Tracking
New forecast layout! Learn more

10-Day Weather Forecast

Advertisements
Track Severe Weather on mobile